Time;durP1;ratioP1;P1;durP2;ratioP2;P2;SDS_P1;SDS_P2;PMS_P1;PMS_P2;Temp;Humidity;BMP_temperature;BMP_pressure;BME280_temperature;BME280_humidity;BME280_pressure;Samples;Min_cycle;Max_cycle;Signal;HPM_P1;HPM_P2
2023/05/05 00:00:59;;;;;;;17.70;7.30;;;;;;;12.22;45.75;101301.55;111116;1209;138887;-61
2023/05/05 00:03:24;;;;;;;18.60;8.20;;;;;;;12.15;45.96;101299.48;111210;1212;99098;-60
2023/05/05 00:05:51;;;;;;;11.90;6.60;;;;;;;12.09;46.17;101303.50;111064;1205;138176;-60
2023/05/05 00:08:17;;;;;;;18.00;8.60;;;;;;;12.04;46.57;101301.17;111284;1206;99024;-61
2023/05/05 00:10:46;;;;;;;17.00;8.30;;;;;;;11.99;46.67;101305.48;111309;1211;98981;-60
2023/05/05 00:13:13;;;;;;;17.50;7.70;;;;;;;11.92;46.92;101304.88;111207;1207;138524;-60
2023/05/05 00:15:40;;;;;;;19.60;7.80;;;;;;;11.87;47.13;101305.94;111171;1211;98954;-61
2023/05/05 00:18:06;;;;;;;20.10;8.60;;;;;;;11.83;47.37;101309.33;111038;1211;139049;-61
2023/05/05 00:20:31;;;;;;;22.00;8.10;;;;;;;11.80;47.42;101304.80;111231;1209;99051;-60
2023/05/05 00:22:56;;;;;;;21.00;8.40;;;;;;;11.74;47.63;101303.73;110936;1211;138980;-60
2023/05/05 00:25:22;;;;;;;18.50;7.40;;;;;;;11.67;47.78;101301.67;111090;1219;99275;-60
2023/05/05 00:27:47;;;;;;;20.20;8.00;;;;;;;11.57;48.05;101304.55;111223;1211;98939;-61
2023/05/05 00:30:12;;;;;;;19.90;6.50;;;;;;;11.49;48.33;101300.20;111040;1211;139654;-60
2023/05/05 00:32:38;;;;;;;20.10;7.20;;;;;;;11.44;48.63;101296.98;111206;1211;98559;-60
2023/05/05 00:35:05;;;;;;;15.20;7.90;;;;;;;11.35;48.97;101297.27;110999;1214;138390;-60
2023/05/05 00:37:30;;;;;;;17.20;7.30;;;;;;;11.27;49.30;101298.11;111199;1210;99082;-60
2023/05/05 00:39:55;;;;;;;13.20;6.60;;;;;;;11.23;49.47;101304.18;111145;1211;100219;-61
2023/05/05 00:42:21;;;;;;;15.40;7.20;;;;;;;11.16;49.80;101303.73;110991;1212;138311;-61
2023/05/05 00:44:46;;;;;;;17.10;6.70;;;;;;;11.11;50.04;101307.46;111139;1212;99047;-60
2023/05/05 00:47:13;;;;;;;20.40;7.10;;;;;;;11.08;50.36;101306.13;111020;1211;140182;-59
2023/05/05 00:49:38;;;;;;;16.00;6.70;;;;;;;11.01;50.45;101304.59;111164;1211;99204;-60
2023/05/05 00:52:05;;;;;;;18.60;7.80;;;;;;;10.99;50.94;101303.06;111151;1211;99027;-60
2023/05/05 00:54:33;;;;;;;17.10;6.90;;;;;;;10.98;50.95;101300.96;111019;1206;138916;-60
2023/05/05 00:56:59;;;;;;;18.30;7.00;;;;;;;10.96;51.06;101297.44;111037;1211;99076;-60
2023/05/05 00:59:24;;;;;;;15.40;5.90;;;;;;;10.93;51.25;101296.11;111052;1211;138451;-61
2023/05/05 01:01:50;;;;;;;14.90;5.80;;;;;;;10.90;51.61;101297.83;111261;1207;98746;-60
2023/05/05 01:04:16;;;;;;;17.80;7.20;;;;;;;10.85;51.99;101298.90;111089;1207;98692;-60
2023/05/05 01:07:02;;;;;;;20.00;7.90;;;;;;;10.79;52.22;101295.51;111023;1212;138871;-60
2023/05/05 01:09:46;;;;;;;14.00;6.20;;;;;;;10.73;52.51;101289.98;111180;1206;99893;-60
2023/05/05 01:12:31;;;;;;;14.70;6.50;;;;;;;10.70;52.86;101290.11;110977;1211;140521;-60
2023/05/05 01:15:18;;;;;;;20.10;6.80;;;;;;;10.68;53.00;101290.68;111066;1206;99005;-60
2023/05/05 01:18:07;;;;;;;17.00;5.90;;;;;;;10.64;53.44;101291.90;111112;1210;139207;-60
2023/05/05 01:20:44;;;;;;;12.10;6.40;;;;;;;10.58;53.73;101288.71;111144;1211;113383;-60
2023/05/05 01:23:28;;;;;;;16.20;5.70;;;;;;;10.54;53.89;101290.64;110957;1206;139866;-60
2023/05/05 01:26:16;;;;;;;18.00;6.10;;;;;;;10.52;53.99;101289.80;111120;1211;108274;-61
2023/05/05 01:28:47;;;;;;;17.00;6.50;;;;;;;10.48;54.29;101287.26;111117;1212;99164;-60
2023/05/05 01:31:33;;;;;;;14.10;5.60;;;;;;;10.49;54.47;101285.62;111147;1211;98801;-60
2023/05/05 01:34:02;;;;;;;12.20;5.50;;;;;;;10.50;54.48;101287.75;111102;1211;111808;-60
2023/05/05 01:36:35;;;;;;;20.90;6.30;;;;;;;10.46;54.72;101286.60;111100;1206;138493;-60
2023/05/05 01:39:03;;;;;;;13.50;5.60;;;;;;;10.42;54.92;101285.66;111131;1212;107710;-60
2023/05/05 01:41:36;;;;;;;14.80;5.80;;;;;;;10.44;55.07;101292.93;110992;1211;140618;-60
2023/05/05 01:44:05;;;;;;;16.70;6.00;;;;;;;10.45;55.02;101291.63;111189;1219;98963;-60
2023/05/05 01:46:34;;;;;;;12.40;5.80;;;;;;;10.44;55.24;101295.96;111213;1211;113807;-60
2023/05/05 01:48:59;;;;;;;13.90;5.70;;;;;;;10.37;55.48;101295.13;111006;1207;138373;-60
2023/05/05 01:51:26;;;;;;;21.40;6.30;;;;;;;10.31;55.69;101295.52;111107;1206;99059;-60
2023/05/05 01:53:53;;;;;;;13.80;5.30;;;;;;;10.27;55.89;101297.79;110992;1210;139915;-61
2023/05/05 01:56:22;;;;;;;10.70;5.40;;;;;;;10.24;56.21;101293.08;111215;1212;98962;-60
2023/05/05 01:58:48;;;;;;;19.10;7.00;;;;;;;10.15;56.43;101291.34;111134;1212;100287;-60
2023/05/05 02:01:17;;;;;;;11.50;5.20;;;;;;;10.09;56.63;101289.23;111126;1212;99355;-60
2023/05/05 02:03:45;;;;;;;18.50;5.70;;;;;;;10.07;56.66;101289.99;111174;1219;99320;-60
2023/05/05 02:06:13;;;;;;;11.40;5.00;;;;;;;10.07;56.77;101292.14;111104;1210;139612;-60
2023/05/05 02:08:42;;;;;;;10.20;4.60;;;;;;;10.05;56.82;101295.05;111127;1206;112455;-60
2023/05/05 02:11:09;;;;;;;13.50;4.90;;;;;;;10.05;56.86;101298.27;110951;1212;139792;-60
2023/05/05 02:13:35;;;;;;;17.90;5.60;;;;;;;9.97;56.93;101297.42;111219;1213;98961;-60
2023/05/05 02:16:03;;;;;;;15.80;5.90;;;;;;;9.91;57.24;101298.69;111219;1211;99927;-60
2023/05/05 02:18:32;;;;;;;13.00;5.40;;;;;;;9.89;57.21;101300.55;110992;1212;138765;-60
2023/05/05 02:20:57;;;;;;;15.90;5.90;;;;;;;9.82;57.34;101296.83;111123;1211;112766;-61
2023/05/05 02:23:23;;;;;;;14.00;5.10;;;;;;;9.78;57.55;101296.23;111072;1206;139052;-60
2023/05/05 02:25:51;;;;;;;14.60;5.40;;;;;;;9.70;57.90;101300.40;111108;1213;99049;-60
2023/05/05 02:28:45;;;;;;;19.20;5.40;;;;;;;9.63;58.13;101304.00;111212;1210;99180;-60
2023/05/05 02:31:12;;;;;;;12.30;5.00;;;;;;;9.60;58.33;101303.19;111076;1210;138974;-60
2023/05/05 02:33:40;;;;;;;11.60;4.50;;;;;;;9.55;58.41;101299.23;111207;1211;99034;-60
2023/05/05 02:36:20;;;;;;;16.60;5.40;;;;;;;9.52;58.52;101295.04;111017;1212;138896;-60
2023/05/05 02:38:51;;;;;;;12.60;5.00;;;;;;;9.49;58.60;101294.59;111113;1219;98973;-61
2023/05/05 02:41:21;;;;;;;10.60;4.50;;;;;;;9.43;58.68;101294.55;111064;1212;139591;-60
2023/05/05 02:43:48;;;;;;;16.40;6.70;;;;;;;9.37;58.89;101297.41;111227;1211;112612;-59
2023/05/05 02:46:14;;;;;;;26.30;5.70;;;;;;;9.34;58.82;101296.44;111261;1212;100063;-60
2023/05/05 02:48:40;;;;;;;13.10;4.90;;;;;;;9.31;58.96;101303.65;111074;1212;140683;-60
2023/05/05 02:51:06;;;;;;;15.90;5.70;;;;;;;9.31;58.99;101303.11;111210;1206;98980;-61
2023/05/05 02:53:32;;;;;;;9.20;4.20;;;;;;;9.31;58.98;101298.11;111058;1210;138547;-60
2023/05/05 02:56:30;;;;;;;13.20;4.70;;;;;;;9.29;59.04;101302.81;111259;1207;99022;-61
2023/05/05 02:59:18;;;;;;;18.80;4.70;;;;;;;9.23;59.18;101304.94;111019;1212;143054;-60
2023/05/05 03:02:14;;;;;;;14.50;5.40;;;;;;;9.13;59.25;101302.52;111181;1211;99050;-60
2023/05/05 03:04:52;;;;;;;13.90;5.00;;;;;;;9.07;59.29;101304.12;111193;1211;99259;-59
2023/05/05 03:07:26;;;;;;;14.60;5.00;;;;;;;9.04;59.34;101305.46;111234;1207;112713;-60
2023/05/05 03:10:02;;;;;;;11.10;4.60;;;;;;;9.04;59.46;101314.18;111469;1212;100033;-60
2023/05/05 03:12:35;;;;;;;11.70;4.80;;;;;;;9.04;59.38;101314.00;111040;1212;140733;-60
2023/05/05 03:15:01;;;;;;;15.40;4.80;;;;;;;9.02;59.47;101313.71;111164;1212;99284;-60
2023/05/05 03:17:29;;;;;;;15.10;5.10;;;;;;;8.99;59.50;101317.70;111111;1212;140467;-60
2023/05/05 03:19:55;;;;;;;11.60;4.30;;;;;;;8.99;59.44;101314.32;111234;1212;99077;-60
2023/05/05 03:22:21;;;;;;;12.80;5.00;;;;;;;8.97;59.70;101314.36;111144;1206;99085;-60
2023/05/05 03:24:50;;;;;;;10.20;4.20;;;;;;;8.93;59.73;101312.33;111079;1212;139864;-60
2023/05/05 03:27:16;;;;;;;13.90;4.90;;;;;;;8.93;59.83;101316.98;111285;1212;99479;-61
2023/05/05 03:29:41;;;;;;;15.80;4.00;;;;;;;8.89;59.96;101318.34;111006;1217;140516;-60
2023/05/05 03:32:07;;;;;;;11.00;4.40;;;;;;;8.85;60.02;101317.17;111155;1212;99117;-60
2023/05/05 03:34:34;;;;;;;9.80;4.50;;;;;;;8.84;60.18;101317.02;111070;1212;99535;-60
2023/05/05 03:37:00;;;;;;;20.00;4.10;;;;;;;8.86;60.10;101317.16;111033;1210;140017;-60
2023/05/05 03:39:25;;;;;;;12.50;3.90;;;;;;;8.86;60.13;101315.02;111146;1209;99053;-59
2023/05/05 03:41:51;;;;;;;13.30;4.00;;;;;;;8.85;60.30;101308.98;111098;1212;140885;-59
2023/05/05 03:44:16;;;;;;;13.60;3.90;;;;;;;8.79;60.63;101304.67;111090;1212;99140;-61
2023/05/05 03:46:41;;;;;;;7.90;4.00;;;;;;;8.74;61.03;101301.05;111224;1212;99553;-61
2023/05/05 03:49:08;;;;;;;21.90;4.70;;;;;;;8.73;61.30;101301.63;111022;1212;139286;-61
2023/05/05 03:51:34;;;;;;;12.70;4.40;;;;;;;8.73;61.38;101307.30;111128;1212;98949;-62
2023/05/05 03:54:00;;;;;;;6.20;3.70;;;;;;;8.76;61.36;101309.58;111086;1210;139145;-59
2023/05/05 03:56:25;;;;;;;15.00;4.30;;;;;;;8.78;61.33;101309.86;111184;1212;98969;-59
2023/05/05 03:58:51;;;;;;;14.00;4.50;;;;;;;8.80;61.45;101308.92;111094;1206;99007;-59
2023/05/05 04:01:17;;;;;;;8.10;3.80;;;;;;;8.81;61.48;101308.55;111400;1206;98961;-59
2023/05/05 04:03:42;;;;;;;12.10;3.80;;;;;;;8.82;61.52;101308.88;111131;1212;99443;-59
2023/05/05 04:06:08;;;;;;;9.40;4.00;;;;;;;8.81;61.77;101313.02;111030;1212;139475;-60
2023/05/05 04:08:33;;;;;;;12.10;4.50;;;;;;;8.79;61.86;101315.91;111234;1206;98962;-59
2023/05/05 04:11:01;;;;;;;16.10;4.40;;;;;;;8.81;62.03;101314.09;111067;1212;139689;-59
2023/05/05 04:13:27;;;;;;;16.70;4.50;;;;;;;8.83;62.08;101311.01;111130;1212;99216;-60
2023/05/05 04:15:52;;;;;;;11.40;4.00;;;;;;;8.87;62.04;101310.54;111386;1206;99101;-59
2023/05/05 04:18:17;;;;;;;11.90;4.40;;;;;;;8.90;62.18;101311.36;111071;1211;139347;-62
2023/05/05 04:20:43;;;;;;;6.70;2.90;;;;;;;8.91;62.14;101315.98;111066;1208;99068;-61
2023/05/05 04:23:08;;;;;;;13.70;4.60;;;;;;;8.92;62.24;101318.79;111098;1212;139591;-61
2023/05/05 04:25:33;;;;;;;12.40;4.50;;;;;;;8.94;62.31;101321.05;111115;1206;99045;-61
2023/05/05 04:28:00;;;;;;;14.90;3.80;;;;;;;8.96;62.39;101324.02;111123;1215;98963;-62
2023/05/05 04:30:25;;;;;;;15.30;4.20;;;;;;;8.98;62.46;101320.76;111054;1212;139220;-62
2023/05/05 04:32:51;;;;;;;14.60;4.30;;;;;;;9.01;62.45;101324.96;111112;1206;100229;-59
2023/05/05 04:35:16;;;;;;;8.20;3.70;;;;;;;9.05;62.55;101323.08;111143;1206;140180;-59
2023/05/05 04:37:42;;;;;;;6.30;3.60;;;;;;;9.08;62.54;101325.48;111205;1206;99048;-60
2023/05/05 04:40:08;;;;;;;11.60;3.70;;;;;;;9.07;62.59;101329.80;111214;1212;98948;-60
2023/05/05 04:42:33;;;;;;;15.30;3.60;;;;;;;9.11;62.57;101329.70;111101;1212;138641;-59
2023/05/05 04:44:59;;;;;;;10.90;4.00;;;;;;;9.14;62.50;101327.65;111204;1212;99008;-60
2023/05/05 04:47:24;;;;;;;13.10;4.40;;;;;;;9.14;62.49;101332.99;111054;1206;140417;-60
2023/05/05 04:49:49;;;;;;;12.40;3.80;;;;;;;9.18;62.52;101331.13;111254;1210;98933;-59
2023/05/05 04:52:15;;;;;;;13.30;3.70;;;;;;;9.18;62.59;101337.36;111163;1212;98987;-60
2023/05/05 04:54:40;;;;;;;11.50;3.50;;;;;;;9.19;62.67;101339.48;111053;1206;141615;-59
2023/05/05 04:57:06;;;;;;;10.30;3.80;;;;;;;9.18;62.62;101338.79;111284;1212;98981;-59
2023/05/05 04:59:31;;;;;;;9.70;4.00;;;;;;;9.19;62.66;101341.59;111085;1212;139229;-60
2023/05/05 05:01:57;;;;;;;12.40;4.30;;;;;;;9.25;62.58;101345.54;111169;1211;99044;-60
2023/05/05 05:04:24;;;;;;;11.80;3.60;;;;;;;9.28;62.68;101345.46;111094;1212;99028;-60
2023/05/05 05:06:49;;;;;;;11.80;3.90;;;;;;;9.28;62.72;101351.53;111030;1206;140353;-60
2023/05/05 05:09:15;;;;;;;11.80;3.90;;;;;;;9.26;62.62;101354.27;111234;1212;99037;-59
2023/05/05 05:11:40;;;;;;;8.70;3.60;;;;;;;9.27;62.64;101358.50;111148;1206;138633;-60
2023/05/05 05:14:05;;;;;;;15.30;3.70;;;;;;;9.30;62.69;101357.89;111095;1212;98947;-60
2023/05/05 05:16:31;;;;;;;9.00;3.50;;;;;;;9.31;62.73;101359.83;111206;1210;98953;-60
2023/05/05 05:18:56;;;;;;;15.40;3.90;;;;;;;9.32;62.61;101363.01;111036;1212;139221;-60
2023/05/05 05:21:21;;;;;;;13.70;3.40;;;;;;;9.35;62.70;101361.85;111192;1212;99045;-60
2023/05/05 05:23:47;;;;;;;20.20;3.80;;;;;;;9.38;62.68;101368.18;111010;1206;140358;-61
2023/05/05 05:26:12;;;;;;;20.70;4.40;;;;;;;9.39;62.73;101366.91;111131;1206;100474;-60
2023/05/05 05:28:37;;;;;;;21.60;4.30;;;;;;;9.40;62.76;101365.81;111227;1212;99031;-59
2023/05/05 05:31:03;;;;;;;16.60;4.50;;;;;;;9.42;62.68;101370.21;110991;1212;138734;-60
2023/05/05 05:33:29;;;;;;;10.40;3.50;;;;;;;9.46;62.67;101371.73;111239;1212;100120;-60
2023/05/05 05:35:54;;;;;;;20.00;4.30;;;;;;;9.51;62.60;101370.88;111008;1211;139738;-63
2023/05/05 05:38:20;;;;;;;54.10;6.90;;;;;;;9.61;62.61;101377.59;111171;1206;99018;-60
2023/05/05 05:40:45;;;;;;;19.50;4.40;;;;;;;9.67;62.58;101377.73;111161;1212;99024;-61
2023/05/05 05:43:11;;;;;;;9.20;3.50;;;;;;;9.66;62.57;101382.23;111059;1211;139273;-60
2023/05/05 05:45:36;;;;;;;6.90;3.70;;;;;;;9.68;62.50;101383.07;111212;1212;100452;-60
2023/05/05 05:48:01;;;;;;;8.70;4.00;;;;;;;9.71;62.45;101382.11;110951;1212;139297;-60
2023/05/05 05:50:27;;;;;;;12.10;3.50;;;;;;;9.78;62.48;101379.77;111100;1206;98989;-60
2023/05/05 05:52:53;;;;;;;16.80;4.30;;;;;;;9.83;62.57;101384.27;111271;1209;139121;-61
2023/05/05 05:55:18;;;;;;;10.30;3.40;;;;;;;9.86;62.41;101383.83;111080;1212;99150;-61
2023/05/05 05:57:44;;;;;;;9.80;4.10;;;;;;;9.90;62.47;101379.41;111126;1211;98926;-60
2023/05/05 06:00:10;;;;;;;13.60;4.30;;;;;;;9.93;62.40;101379.31;111114;1212;138389;-61
2023/05/05 06:02:35;;;;;;;10.10;4.00;;;;;;;9.97;62.39;101372.77;111200;1211;99117;-61
2023/05/05 06:05:00;;;;;;;12.50;4.00;;;;;;;10.02;62.34;101372.45;111061;1211;139288;-60
2023/05/05 06:07:26;;;;;;;19.50;4.40;;;;;;;10.01;62.29;101375.16;111116;1212;99921;-60
2023/05/05 06:09:51;;;;;;;12.50;4.00;;;;;;;10.06;62.27;101372.68;111150;1220;98941;-60
2023/05/05 06:12:16;;;;;;;14.90;4.60;;;;;;;10.13;62.33;101378.92;111094;1222;139518;-60
2023/05/05 06:14:41;;;;;;;10.80;4.50;;;;;;;10.22;62.16;101384.23;111129;1212;98949;-61
2023/05/05 06:17:07;;;;;;;8.80;3.80;;;;;;;10.26;62.18;101382.48;111084;1206;139463;-61
2023/05/05 06:19:34;;;;;;;11.10;3.90;;;;;;;10.29;62.06;101382.75;111075;1212;99110;-61
2023/05/05 06:21:59;;;;;;;6.50;3.40;;;;;;;10.38;62.16;101387.27;111131;1206;98972;-60
2023/05/05 06:24:24;;;;;;;13.90;4.70;;;;;;;10.47;61.93;101389.12;111099;1218;140670;-60
2023/05/05 06:26:49;;;;;;;12.70;3.90;;;;;;;10.56;61.97;101388.14;111073;1212;98926;-61
2023/05/05 06:29:15;;;;;;;12.00;3.40;;;;;;;10.67;61.97;101391.34;111050;1212;138920;-61
2023/05/05 06:31:40;;;;;;;19.20;4.90;;;;;;;10.80;61.79;101386.30;111197;1212;98939;-61
2023/05/05 06:34:05;;;;;;;8.80;3.80;;;;;;;10.85;61.59;101381.67;111095;1220;98937;-60
2023/05/05 06:36:31;;;;;;;11.00;3.90;;;;;;;10.85;61.48;101385.06;111118;1206;138021;-61
2023/05/05 06:38:56;;;;;;;14.60;4.60;;;;;;;10.83;61.31;101386.02;111269;1206;99077;-61
2023/05/05 06:41:22;;;;;;;13.50;4.50;;;;;;;10.87;61.35;101387.86;110996;1212;138892;-61
2023/05/05 06:43:47;;;;;;;15.10;4.40;;;;;;;10.94;61.33;101393.88;111259;1209;98970;-61
2023/05/05 06:46:12;;;;;;;11.00;3.80;;;;;;;11.03;61.26;101394.83;111197;1206;99053;-60
2023/05/05 06:48:38;;;;;;;10.60;4.30;;;;;;;11.05;61.03;101393.15;111109;1206;138636;-60
2023/05/05 06:51:03;;;;;;;9.70;4.30;;;;;;;11.03;61.10;101388.40;111086;1210;98938;-61
2023/05/05 06:53:28;;;;;;;12.10;4.50;;;;;;;11.00;60.98;101385.98;110844;1212;138445;-61
2023/05/05 06:55:53;;;;;;;10.50;4.50;;;;;;;11.03;61.07;101386.06;111101;1212;106300;-61
2023/05/05 06:58:19;;;;;;;13.80;4.60;;;;;;;11.12;60.94;101386.84;111171;1212;98954;-61
2023/05/05 07:00:45;;;;;;;13.00;4.20;;;;;;;11.26;60.98;101387.98;111118;1206;139858;-61
2023/05/05 07:03:11;;;;;;;12.20;4.60;;;;;;;11.32;60.83;101389.37;111010;1212;100135;-61
2023/05/05 07:05:36;;;;;;;7.70;3.80;;;;;;;11.46;60.80;101388.89;111022;1212;139223;-61
2023/05/05 07:08:01;;;;;;;12.60;4.10;;;;;;;11.58;60.64;101387.73;111181;1206;99610;-61
2023/05/05 07:10:27;;;;;;;12.50;4.40;;;;;;;11.66;60.49;101388.89;111217;1212;99008;-61
2023/05/05 07:12:53;;;;;;;10.90;4.00;;;;;;;11.71;60.31;101391.55;111097;1212;140308;-60
2023/05/05 07:15:20;;;;;;;32.60;5.30;;;;;;;11.79;60.37;101396.51;111174;1210;98956;-60
2023/05/05 07:17:45;;;;;;;16.60;4.70;;;;;;;11.87;60.23;101391.73;111027;1211;138821;-60
2023/05/05 07:20:11;;;;;;;14.00;3.70;;;;;;;11.95;60.25;101396.78;111182;1211;99030;-60
2023/05/05 07:22:37;;;;;;;15.80;5.10;;;;;;;12.01;60.09;101392.97;111271;1206;107840;-59
2023/05/05 07:25:03;;;;;;;9.80;3.60;;;;;;;12.09;60.16;101393.05;110951;1212;138490;-60
2023/05/05 07:27:30;;;;;;;11.30;4.40;;;;;;;12.24;60.03;101382.98;111336;1205;98997;-60
2023/05/05 07:29:56;;;;;;;19.20;5.10;;;;;;;12.39;59.89;101378.63;110960;1219;139218;-60
2023/05/05 07:32:21;;;;;;;16.70;5.10;;;;;;;12.48;59.56;101382.40;111100;1212;99500;-59
2023/05/05 07:34:46;;;;;;;15.90;4.40;;;;;;;12.51;59.38;101381.41;111105;1212;98969;-59
2023/05/05 07:37:11;;;;;;;20.70;4.80;;;;;;;12.58;59.35;101381.45;110986;1210;138691;-60
2023/05/05 07:39:37;;;;;;;61.50;7.00;;;;;;;12.64;59.13;101380.31;111162;1211;99181;-60
2023/05/05 07:42:02;;;;;;;49.20;5.00;;;;;;;12.74;59.07;101380.30;110994;1212;138910;-60
2023/05/05 07:44:28;;;;;;;11.60;4.10;;;;;;;12.86;58.83;101380.86;111149;1211;99003;-59
2023/05/05 07:46:53;;;;;;;33.00;5.40;;;;;;;12.88;58.67;101383.14;111065;1210;138813;-61
2023/05/05 07:49:19;;;;;;;192.00;14.40;;;;;;;12.86;58.49;101384.81;111217;1206;99091;-60
2023/05/05 07:51:45;;;;;;;29.40;5.40;;;;;;;12.94;58.62;101390.94;111199;1211;98923;-60
2023/05/05 07:54:12;;;;;;;16.50;4.30;;;;;;;13.06;58.51;101389.17;111151;1206;138767;-60
2023/05/05 07:56:37;;;;;;;9.90;4.50;;;;;;;13.19;58.42;101388.29;111267;1210;102880;-59
2023/05/05 07:59:03;;;;;;;8.50;4.10;;;;;;;13.25;58.29;101393.61;111096;1212;138256;-60
2023/05/05 08:01:28;;;;;;;10.20;4.30;;;;;;;13.27;58.07;101395.48;111205;1206;99103;-60
2023/05/05 08:03:53;;;;;;;14.40;4.50;;;;;;;13.25;58.03;101397.18;111152;1206;99063;-60
2023/05/05 08:06:20;;;;;;;12.60;4.90;;;;;;;13.26;57.99;101399.46;111033;1206;138905;-60
2023/05/05 08:08:52;;;;;;;12.90;5.70;;;;;;;13.36;57.93;101396.55;111080;1206;97810;-61
2023/05/05 08:11:18;;;;;;;9.50;4.80;;;;;;;13.40;57.75;101402.66;111028;1222;139798;-60
2023/05/05 08:13:48;;;;;;;7.00;4.20;;;;;;;13.50;57.72;101404.17;112788;1209;99061;-63
2023/05/05 08:16:13;;;;;;;11.30;4.20;;;;;;;13.66;57.70;101407.98;113307;1206;98910;-61
2023/05/05 08:18:41;;;;;;;7.90;3.90;;;;;;;13.73;57.35;101406.21;113190;1206;139394;-60
2023/05/05 08:21:08;;;;;;;8.80;4.00;;;;;;;13.74;57.14;101407.09;113161;1206;97484;-60
2023/05/05 08:23:35;;;;;;;13.10;4.00;;;;;;;13.77;57.11;101408.38;112717;1211;140606;-60
2023/05/05 08:26:01;;;;;;;9.90;4.10;;;;;;;13.86;57.04;101413.56;110789;1210;99095;-60
2023/05/05 08:28:27;;;;;;;8.50;3.70;;;;;;;13.88;56.60;101414.16;111099;1206;100036;-60
2023/05/05 08:30:52;;;;;;;33.70;5.20;;;;;;;13.83;56.58;101414.91;111055;1206;138947;-60
2023/05/05 08:33:18;;;;;;;25.10;5.50;;;;;;;13.87;56.45;101410.79;110906;1206;99352;-63
2023/05/05 08:35:43;;;;;;;37.20;7.20;;;;;;;13.87;56.23;101409.89;111081;1210;138895;-62
2023/05/05 08:38:10;;;;;;;18.70;5.40;;;;;;;13.86;56.08;101416.04;111061;1211;99025;-61
2023/05/05 08:40:37;;;;;;;18.10;4.60;;;;;;;13.91;56.06;101412.58;110967;1213;100040;-60
2023/05/05 08:43:03;;;;;;;12.40;4.00;;;;;;;13.99;55.99;101412.05;110929;1209;138299;-61
2023/05/05 08:45:30;;;;;;;13.30;4.40;;;;;;;14.07;55.76;101414.39;111184;1206;98994;-60
2023/05/05 08:47:59;;;;;;;17.10;4.60;;;;;;;14.17;55.74;101411.95;111204;1209;138812;-60
2023/05/05 08:50:26;;;;;;;32.20;6.50;;;;;;;14.17;55.31;101411.58;111077;1206;99063;-60
2023/05/05 08:53:07;;;;;;;21.50;5.50;;;;;;;14.19;55.22;101407.71;111181;1211;99014;-60
2023/05/05 08:55:34;;;;;;;153.00;11.40;;;;;;;14.27;55.27;101410.59;111203;1211;112799;-60
2023/05/05 08:58:03;;;;;;;240.60;16.70;;;;;;;14.43;55.36;101408.77;111193;1211;98920;-60
2023/05/05 09:00:29;;;;;;;18.10;4.70;;;;;;;14.72;55.32;101403.80;111070;1212;138864;-61
2023/05/05 09:02:58;;;;;;;14.00;4.70;;;;;;;14.87;54.97;101404.12;111191;1206;98982;-61
2023/05/05 09:05:26;;;;;;;9.50;4.00;;;;;;;14.83;54.71;101406.30;111090;1210;138299;-60
2023/05/05 09:07:51;;;;;;;7.50;3.90;;;;;;;14.76;54.35;101406.14;111176;1205;99128;-61
2023/05/05 09:10:17;;;;;;;9.90;4.20;;;;;;;14.71;54.31;101405.29;111214;1211;98993;-61
2023/05/05 09:12:43;;;;;;;11.40;4.60;;;;;;;14.76;54.03;101404.35;111161;1212;138570;-60
2023/05/05 09:15:13;;;;;;;8.80;4.70;;;;;;;14.62;53.53;101406.46;111234;1211;99088;-60
2023/05/05 09:17:40;;;;;;;10.20;3.90;;;;;;;14.44;53.19;101406.21;111110;1211;139730;-60
2023/05/05 09:20:06;;;;;;;10.50;4.00;;;;;;;14.44;53.51;101406.60;111234;1212;98954;-59
2023/05/05 09:22:41;;;;;;;9.20;4.10;;;;;;;14.55;53.33;101406.95;111166;1206;99091;-60
2023/05/05 09:25:12;;;;;;;14.90;4.50;;;;;;;14.63;53.47;101403.69;111058;1212;138754;-60
2023/05/05 09:27:46;;;;;;;15.90;4.90;;;;;;;14.86;53.52;101401.32;111128;1211;99021;-60
2023/05/05 09:30:25;;;;;;;10.40;4.00;;;;;;;14.90;52.81;101398.21;111143;1206;138451;-61
2023/05/05 09:32:53;;;;;;;34.90;5.80;;;;;;;14.78;52.62;101394.33;111162;1206;100126;-60
2023/05/05 09:35:19;;;;;;;15.30;4.70;;;;;;;14.84;52.61;101401.58;111079;1211;139274;-61
2023/05/05 09:37:45;;;;;;;21.90;5.00;;;;;;;14.91;52.75;101404.67;111194;1212;99073;-61
2023/05/05 09:40:13;;;;;;;11.90;4.60;;;;;;;15.22;52.90;101401.48;111309;1206;98954;-61
2023/05/05 09:42:39;;;;;;;13.90;4.90;;;;;;;15.44;52.60;101398.02;111031;1211;138764;-60
2023/05/05 09:45:17;;;;;;;7.80;4.30;;;;;;;15.66;52.58;101399.77;111257;1211;99053;-61
2023/05/05 09:47:44;;;;;;;9.60;4.60;;;;;;;15.83;52.39;101403.35;111065;1205;138219;-61
2023/05/05 09:50:14;;;;;;;8.60;4.30;;;;;;;15.96;52.27;101402.33;111195;1211;99006;-61
2023/05/05 09:52:40;;;;;;;19.50;4.90;;;;;;;16.05;52.13;101399.46;111228;1205;111931;-61
2023/05/05 09:55:16;;;;;;;11.30;4.70;;;;;;;16.08;51.76;101404.34;110993;1206;140034;-62
2023/05/05 09:57:41;;;;;;;14.70;5.50;;;;;;;16.22;51.84;101407.53;111165;1215;107988;-62
2023/05/05 10:00:07;;;;;;;16.40;4.50;;;;;;;16.41;51.55;101411.19;111029;1211;138421;-62
2023/05/05 10:02:35;;;;;;;9.10;5.00;;;;;;;16.39;50.83;101412.56;111366;1211;97858;-62
2023/05/05 10:05:14;;;;;;;9.40;4.70;;;;;;;16.33;50.96;101415.59;111159;1206;138424;-62
2023/05/05 10:07:41;;;;;;;13.20;5.70;;;;;;;16.32;50.71;101416.55;111212;1211;99157;-61
2023/05/05 10:10:15;;;;;;;10.60;4.90;;;;;;;16.26;50.42;101413.65;111100;1206;100266;-61
2023/05/05 10:12:41;;;;;;;9.80;4.40;;;;;;;16.24;50.14;101414.28;111093;1211;138289;-61
2023/05/05 10:15:08;;;;;;;10.90;4.60;;;;;;;16.25;50.01;101412.95;111163;1206;100637;-61
2023/05/05 10:17:46;;;;;;;19.70;4.80;;;;;;;16.23;49.28;101406.40;111182;1211;139486;-59
2023/05/05 10:20:12;;;;;;;10.00;5.10;;;;;;;16.14;49.17;101405.65;111243;1212;107755;-59
2023/05/05 10:22:40;;;;;;;9.80;4.70;;;;;;;16.00;49.00;101403.35;111178;1212;98946;-60
2023/05/05 10:25:12;;;;;;;16.10;4.60;;;;;;;15.89;48.62;101403.04;110961;1210;139733;-60
2023/05/05 10:27:43;;;;;;;12.00;5.30;;;;;;;15.90;48.95;101409.10;111114;1211;113053;-59
2023/05/05 10:30:21;;;;;;;;;;;;;;;16.00;49.06;101406.80;111076;1210;138862;-59
2023/05/05 10:32:49;;;;;;;10.80;5.10;;;;;;;16.07;49.27;101399.54;111169;1211;107577;-59
2023/05/05 10:35:26;;;;;;;33.90;6.80;;;;;;;16.22;49.19;101397.63;111042;1211;138958;-60
2023/05/05 10:37:53;;;;;;;15.60;5.70;;;;;;;16.40;49.02;101391.41;111193;1211;99152;-60
2023/05/05 10:40:21;;;;;;;14.20;5.90;;;;;;;16.42;49.00;101388.77;111257;1206;98995;-60
2023/05/05 10:42:48;;;;;;;13.10;5.80;;;;;;;16.46;48.94;101390.73;111036;1211;140384;-61
2023/05/05 10:45:14;;;;;;;15.10;5.10;;;;;;;16.53;49.07;101382.02;111154;1210;98982;-62
2023/05/05 10:47:40;;;;;;;10.10;5.00;;;;;;;16.64;49.02;101382.31;110848;1211;138328;-61
2023/05/05 10:50:33;;;;;;;9.00;4.80;;;;;;;16.80;48.97;101381.59;111154;1211;98932;-62
2023/05/05 10:53:13;;;;;;;15.90;5.60;;;;;;;16.87;48.67;101382.05;110754;1210;138636;-62
2023/05/05 10:55:45;;;;;;;19.80;5.60;;;;;;;16.85;48.63;101375.51;110934;1213;99481;-61
2023/05/05 10:58:34;;;;;;;18.20;5.20;;;;;;;16.90;48.31;101372.90;110858;1205;99157;-61
2023/05/05 11:01:00;;;;;;;18.80;5.00;;;;;;;16.91;48.04;101371.05;110933;1211;139592;-61
2023/05/05 11:03:25;;;;;;;13.30;4.90;;;;;;;16.81;47.76;101363.48;111696;1205;99350;-61
2023/05/05 11:06:03;;;;;;;14.10;5.40;;;;;;;16.85;47.90;101358.52;110618;1209;138731;-60
2023/05/05 11:08:30;;;;;;;11.10;4.70;;;;;;;17.03;47.91;101357.85;110753;1206;100435;-62
2023/05/05 11:10:56;;;;;;;7.50;4.50;;;;;;;17.25;48.04;101357.83;110920;1211;100012;-62
2023/05/05 11:13:22;;;;;;;9.00;4.90;;;;;;;17.43;47.51;101352.54;113140;1205;138508;-60